createdAt,value
2022-08-17T00:00:34.472Z,61.97
2022-08-17T00:05:48.024Z,61.84
2022-08-17T00:10:52.947Z,61.83
2022-08-17T00:15:59.941Z,61.91
2022-08-17T00:21:05.528Z,61.88
2022-08-17T00:26:14.249Z,61.83
2022-08-17T00:31:17.587Z,61.90
2022-08-17T00:36:21.538Z,62.00
2022-08-17T00:41:27.163Z,62.25
2022-08-17T00:46:34.949Z,62.35
2022-08-17T00:51:44.261Z,62.39
2022-08-17T00:56:54.081Z,62.57
2022-08-17T01:01:58.066Z,62.60
2022-08-17T01:07:03.281Z,62.70
2022-08-17T01:12:09.190Z,62.74
2022-08-17T01:17:12.442Z,62.84
2022-08-17T01:22:16.651Z,62.98
2022-08-17T01:27:21.492Z,62.97
2022-08-17T01:32:26.381Z,63.24
2022-08-17T01:37:37.858Z,63.24
2022-08-17T01:42:48.749Z,63.27
2022-08-17T01:47:53.016Z,63.28
2022-08-17T01:53:00.033Z,63.44
2022-08-17T01:58:03.167Z,63.45
2022-08-17T02:03:07.914Z,63.59
2022-08-17T02:08:19.863Z,63.64
2022-08-17T02:13:23.412Z,63.66
2022-08-17T02:18:27.391Z,63.69
2022-08-17T02:23:34.387Z,63.77
2022-08-17T02:28:37.207Z,63.76
2022-08-17T02:33:42.935Z,63.81
2022-08-17T02:38:46.491Z,63.83
2022-08-17T02:43:49.398Z,63.84
2022-08-17T02:48:52.701Z,63.92
2022-08-17T02:54:39.225Z,64.04
2022-08-17T02:59:19.155Z,64.08
2022-08-17T03:04:22.497Z,64.01
2022-08-17T03:09:25.375Z,64.04
2022-08-17T03:14:28.457Z,64.08
2022-08-17T03:19:31.359Z,64.14
2022-08-17T03:24:34.960Z,64.15
2022-08-17T03:29:39.897Z,64.07
2022-08-17T03:34:43.329Z,64.29
2022-08-17T03:39:46.228Z,64.24
2022-08-17T03:44:50.872Z,64.34
2022-08-17T03:50:12.690Z,64.34
2022-08-17T03:55:36.541Z,64.20
2022-08-17T04:00:45.542Z,64.44
2022-08-17T04:05:48.430Z,64.45
2022-08-17T04:10:51.297Z,64.37
2022-08-17T04:15:55.633Z,64.41
2022-08-17T04:20:58.851Z,64.51
2022-08-17T04:26:01.755Z,64.86
2022-08-17T04:31:04.846Z,64.99
2022-08-17T04:36:11.723Z,64.91
2022-08-17T04:41:33.995Z,64.87
2022-08-17T04:46:37.261Z,65.00
2022-08-17T04:51:51.613Z,65.16
2022-08-17T04:56:59.190Z,65.14
2022-08-17T05:02:02.196Z,65.25
2022-08-17T05:07:05.084Z,65.20
2022-08-17T05:12:08.168Z,65.11
2022-08-17T05:17:11.312Z,65.15
2022-08-17T05:22:14.844Z,65.44
2022-08-17T05:27:19.057Z,65.50
2022-08-17T05:32:38.184Z,65.50
2022-08-17T05:37:42.552Z,65.28
2022-08-17T05:42:45.388Z,65.22
2022-08-17T05:47:48.318Z,65.09
2022-08-17T05:53:10.538Z,64.79
2022-08-17T05:58:42.255Z,64.58
2022-08-17T06:04:03.274Z,64.49
2022-08-17T06:09:34.199Z,64.36
2022-08-17T06:15:01.517Z,64.34
2022-08-17T06:20:12.354Z,64.32
2022-08-17T06:25:33.592Z,64.23
2022-08-17T06:31:01.548Z,64.26
2022-08-17T06:36:40.604Z,64.23
2022-08-17T06:42:59.902Z,64.00
2022-08-17T06:47:55.993Z,64.06
2022-08-17T06:53:28.370Z,63.92
2022-08-17T06:58:33.439Z,63.69
2022-08-17T07:03:41.666Z,63.68
2022-08-17T07:08:57.678Z,63.74
2022-08-17T07:14:00.443Z,63.67
2022-08-17T07:19:06.154Z,63.57
2022-08-17T07:24:29.960Z,63.44
2022-08-17T07:29:40.018Z,63.24
2022-08-17T07:35:11.118Z,63.28
2022-08-17T07:40:18.135Z,63.15
2022-08-17T07:45:39.635Z,63.03
2022-08-17T07:50:42.602Z,62.92
2022-08-17T07:55:54.025Z,62.82
2022-08-17T08:01:11.288Z,62.85
2022-08-17T08:06:24.851Z,62.57
2022-08-17T08:11:39.262Z,62.40
2022-08-17T08:16:59.136Z,62.29
2022-08-17T08:22:10.325Z,62.02
2022-08-17T08:27:40.232Z,61.91
2022-08-17T08:33:11.083Z,61.82
2022-08-17T08:38:36.469Z,61.37
2022-08-17T08:44:06.153Z,61.12
2022-08-17T08:49:45.126Z,60.92
2022-08-17T08:55:16.977Z,60.59
2022-08-17T09:00:24.145Z,60.36
2022-08-17T09:05:48.760Z,60.17
2022-08-17T09:10:57.625Z,59.96
2022-08-17T09:16:09.670Z,59.82
2022-08-17T09:21:28.791Z,59.86
2022-08-17T09:27:03.659Z,59.15
2022-08-17T09:32:17.796Z,58.90
2022-08-17T09:37:32.601Z,58.70
2022-08-17T09:42:47.600Z,58.31
2022-08-17T09:47:58.176Z,57.87
2022-08-17T09:53:01.833Z,57.55
2022-08-17T09:58:23.565Z,56.89
2022-08-17T10:03:49.133Z,56.72
2022-08-17T10:08:52.157Z,56.43
2022-08-17T10:14:36.373Z,55.74
2022-08-17T10:19:54.044Z,55.74
2022-08-17T10:25:23.627Z,55.85
2022-08-17T10:30:33.324Z,55.47
2022-08-17T10:35:52.559Z,55.30
2022-08-17T10:40:59.971Z,54.76
2022-08-17T10:46:30.466Z,54.41
2022-08-17T10:51:42.127Z,54.10
2022-08-17T10:56:50.484Z,53.96
2022-08-17T11:02:04.694Z,53.31
2022-08-17T11:07:19.292Z,52.97
2022-08-17T11:12:48.951Z,52.85
2022-08-17T11:18:06.786Z,52.71
2022-08-17T11:23:50.460Z,52.60
2022-08-17T11:28:59.668Z,52.87
2022-08-17T11:34:18.597Z,52.99
2022-08-17T11:39:37.676Z,52.40
2022-08-17T11:44:52.563Z,51.97
2022-08-17T11:50:38.756Z,51.39
2022-08-17T11:55:44.832Z,50.76
2022-08-17T12:00:52.031Z,50.26
2022-08-17T12:06:30.215Z,49.69
2022-08-17T12:12:11.041Z,49.20
2022-08-17T12:17:20.894Z,48.55
2022-08-17T12:23:01.306Z,48.32
2022-08-17T12:28:20.170Z,48.30
2022-08-17T12:33:28.408Z,47.83
2022-08-17T12:38:34.901Z,47.48
2022-08-17T12:43:38.086Z,46.99
2022-08-17T12:48:59.924Z,46.34
2022-08-17T12:54:03.420Z,46.80
2022-08-17T12:59:07.249Z,46.49
2022-08-17T13:04:15.763Z,46.15
2022-08-17T13:09:35.908Z,46.61
2022-08-17T13:14:46.552Z,46.36
2022-08-17T13:19:51.216Z,45.74
2022-08-17T13:24:58.156Z,45.22
2022-08-17T13:30:12.458Z,45.41
2022-08-17T13:35:38.954Z,45.52
2022-08-17T13:40:50.297Z,45.30
2022-08-17T13:45:53.488Z,45.82
2022-08-17T13:50:56.340Z,45.48
2022-08-17T13:56:33.479Z,44.90
2022-08-17T14:01:53.197Z,45.01
2022-08-17T14:07:19.918Z,45.38
2022-08-17T14:12:25.177Z,44.88
2022-08-17T14:17:29.597Z,44.75
2022-08-17T14:22:35.706Z,44.88
2022-08-17T14:27:41.864Z,44.96
2022-08-17T14:32:58.253Z,44.89
2022-08-17T14:38:06.012Z,44.87
2022-08-17T14:43:08.964Z,44.81
2022-08-17T14:48:12.021Z,44.20
2022-08-17T14:53:16.554Z,44.37
2022-08-17T14:58:20.046Z,44.36
2022-08-17T15:03:23.596Z,44.59
2022-08-17T15:08:26.462Z,44.58
2022-08-17T15:13:29.942Z,44.90
2022-08-17T15:18:33.060Z,45.10
2022-08-17T15:23:36.395Z,45.10
2022-08-17T15:28:39.295Z,45.15
2022-08-17T15:33:42.218Z,45.00
2022-08-17T15:38:46.132Z,45.13
2022-08-17T15:43:52.660Z,45.06
2022-08-17T15:49:00.113Z,45.00
2022-08-17T15:54:18.671Z,45.74
2022-08-17T15:59:25.590Z,46.62
2022-08-17T16:04:30.952Z,46.86
2022-08-17T16:09:34.822Z,47.43
2022-08-17T16:14:37.715Z,47.76
2022-08-17T16:19:41.444Z,48.13
2022-08-17T16:24:56.868Z,48.22
2022-08-17T16:30:01.204Z,48.63
2022-08-17T16:35:08.277Z,48.92
2022-08-17T16:40:11.834Z,49.00
2022-08-17T16:45:23.995Z,49.33
2022-08-17T16:50:27.079Z,49.49
2022-08-17T16:55:30.229Z,49.66
2022-08-17T17:00:33.847Z,49.90
2022-08-17T17:06:07.426Z,49.96
2022-08-17T17:11:15.616Z,50.03
2022-08-17T17:16:47.117Z,50.10
2022-08-17T17:22:03.899Z,50.34
2022-08-17T17:27:37.161Z,50.37
2022-08-17T17:33:03.608Z,50.46
2022-08-17T17:38:12.785Z,50.56
2022-08-17T17:43:38.198Z,50.65
2022-08-17T17:48:42.204Z,50.87
2022-08-17T17:54:24.198Z,51.09
2022-08-17T17:59:34.892Z,51.11
2022-08-17T18:04:48.964Z,51.35
2022-08-17T18:10:04.245Z,51.60
2022-08-17T18:15:35.689Z,51.75
2022-08-17T18:20:46.513Z,51.89
2022-08-17T18:25:58.835Z,52.17
2022-08-17T18:31:07.727Z,52.36
2022-08-17T18:36:11.703Z,52.77
2022-08-17T18:41:30.583Z,52.94
2022-08-17T18:46:37.835Z,53.12
2022-08-17T18:51:43.261Z,53.48
2022-08-17T18:56:55.374Z,53.76
2022-08-17T19:02:07.585Z,54.04
2022-08-17T19:07:16.852Z,54.33
2022-08-17T19:12:39.486Z,54.52
2022-08-17T19:17:55.525Z,54.69
2022-08-17T19:23:22.904Z,54.99
2022-08-17T19:28:36.933Z,55.10
2022-08-17T19:33:40.067Z,55.27
2022-08-17T19:38:51.578Z,55.52
2022-08-17T19:44:14.814Z,55.67
2022-08-17T19:49:46.763Z,55.86
2022-08-17T19:55:01.109Z,56.01
2022-08-17T20:00:13.761Z,56.29
2022-08-17T20:06:00.880Z,56.53
2022-08-17T20:11:02.976Z,56.70
2022-08-17T20:16:07.235Z,56.87
2022-08-17T20:21:37.315Z,57.07
2022-08-17T20:26:58.737Z,57.26
2022-08-17T20:32:02.481Z,57.48
2022-08-17T20:37:14.466Z,57.57
2022-08-17T20:42:19.946Z,57.83
2022-08-17T20:47:30.857Z,57.92
2022-08-17T20:52:53.366Z,57.98
2022-08-17T20:57:56.833Z,58.24
2022-08-17T21:03:23.823Z,58.40
2022-08-17T21:08:29.743Z,58.62
2022-08-17T21:13:49.215Z,58.54
2022-08-17T21:19:08.716Z,58.72
2022-08-17T21:24:20.516Z,58.84
2022-08-17T21:29:31.105Z,58.85
2022-08-17T21:34:44.349Z,58.99
2022-08-17T21:39:51.913Z,59.02
2022-08-17T21:45:00.655Z,59.23
2022-08-17T21:50:24.500Z,59.29
2022-08-17T21:55:30.929Z,59.36
2022-08-17T22:00:34.044Z,59.56
2022-08-17T22:05:39.601Z,59.76
2022-08-17T22:10:45.445Z,59.98
2022-08-17T22:16:27.855Z,59.95
2022-08-17T22:21:32.099Z,60.01
2022-08-17T22:27:00.328Z,59.97
2022-08-17T22:32:03.730Z,60.15
2022-08-17T22:37:27.959Z,60.26
2022-08-17T22:42:31.366Z,60.37
2022-08-17T22:47:39.597Z,60.45
2022-08-17T22:53:13.531Z,60.50
2022-08-17T22:58:39.018Z,60.74
2022-08-17T23:03:55.681Z,60.75
2022-08-17T23:08:58.874Z,60.97
2022-08-17T23:14:02.444Z,61.10
2022-08-17T23:19:05.392Z,61.09
2022-08-17T23:24:09.096Z,61.10
2022-08-17T23:29:12.122Z,61.06
2022-08-17T23:34:18.425Z,61.18
2022-08-17T23:39:27.749Z,61.44
2022-08-17T23:44:31.415Z,61.46
2022-08-17T23:49:36.366Z,61.63
2022-08-17T23:54:44.273Z,61.79
2022-08-17T23:59:47.378Z,61.99
